Terminal Aerodrome Forecast
Issued by NWS

Home | Current Version | Previous Version | Text Only | Print | Product List | Glossary On
Versions: 1 2 3 4 5 6 7 8 9 10 11 12 13 14
000
FTUS45 KABQ 221100
TAFAEG
TAF
KAEG 221120Z 2212/2312 VRB04KT P6SM FEW120
     FM222000 13011KT P6SM SCT110
     FM230000 12011KT P6SM VCTS SCT100CB BKN150
     FM230200 10011KT P6SM VCSH BKN100
     FM230600 08007KT P6SM BKN100=

USA.gov is the U.S. government's official web portal to all federal, state and local government web resources and services.